createdAt,value
2019-03-24T00:01:26.407Z,94.33
2019-03-24T00:03:54.994Z,77.20
2019-03-24T00:06:23.536Z,71.20
2019-03-24T00:08:52.033Z,71.80
2019-03-24T00:11:20.479Z,70.33
2019-03-24T00:13:48.923Z,65.23
2019-03-24T00:16:17.381Z,63.73
2019-03-24T00:18:45.911Z,68.23
2019-03-24T00:21:14.347Z,64.40
2019-03-24T00:23:42.817Z,57.27
2019-03-24T00:26:11.326Z,52.47
2019-03-24T00:28:39.791Z,52.33
2019-03-24T00:31:08.307Z,53.43
2019-03-24T00:33:36.778Z,58.00
2019-03-24T00:36:05.341Z,54.40
2019-03-24T00:38:33.811Z,51.83
2019-03-24T00:41:02.313Z,53.63
2019-03-24T00:43:30.763Z,52.93
2019-03-24T00:45:59.264Z,48.57
2019-03-24T00:48:27.722Z,51.67
2019-03-24T00:50:56.372Z,45.87
2019-03-24T00:53:24.911Z,48.50
2019-03-24T00:55:53.374Z,48.37
2019-03-24T00:58:21.827Z,45.77
2019-03-24T01:00:51.975Z,45.77
2019-03-24T01:03:20.510Z,46.67
2019-03-24T01:05:48.945Z,44.40
2019-03-24T01:08:17.543Z,41.73
2019-03-24T01:10:46.389Z,34.27
2019-03-24T01:13:15.250Z,31.17
2019-03-24T01:15:47.877Z,33.10
2019-03-24T01:18:14.075Z,34.73
2019-03-24T01:20:42.556Z,28.80
2019-03-24T01:23:11.082Z,29.90
2019-03-24T01:25:39.528Z,25.63
2019-03-24T01:28:08.031Z,23.63
2019-03-24T01:30:36.566Z,21.90
2019-03-24T01:33:05.303Z,22.73
2019-03-24T01:35:33.784Z,23.93
2019-03-24T01:38:02.351Z,23.70
2019-03-24T01:40:30.817Z,20.73
2019-03-24T01:42:59.410Z,22.03
2019-03-24T01:45:27.859Z,20.63
2019-03-24T01:47:56.283Z,21.27
2019-03-24T01:50:24.742Z,19.57
2019-03-24T01:52:53.176Z,23.50
2019-03-24T01:55:21.649Z,26.30
2019-03-24T01:57:50.092Z,20.77
2019-03-24T02:00:18.813Z,19.80
2019-03-24T02:02:47.392Z,20.53
2019-03-24T02:05:15.861Z,19.63
2019-03-24T02:07:44.368Z,20.20
2019-03-24T02:10:13.576Z,21.50
2019-03-24T02:12:42.015Z,22.13
2019-03-24T02:15:11.092Z,20.70
2019-03-24T02:17:39.612Z,18.80
2019-03-24T02:20:08.254Z,20.03
2019-03-24T02:22:36.674Z,26.77
2019-03-24T02:25:07.351Z,22.47
2019-03-24T02:27:35.804Z,21.33
2019-03-24T02:30:05.979Z,20.40
2019-03-24T02:32:34.421Z,24.17
2019-03-24T02:35:03.008Z,23.67
2019-03-24T02:37:31.463Z,22.97
2019-03-24T02:39:59.903Z,20.50
2019-03-24T02:42:28.466Z,20.63
2019-03-24T02:44:56.865Z,22.80
2019-03-24T02:47:25.313Z,26.23
2019-03-24T02:49:53.744Z,21.77
2019-03-24T02:52:22.221Z,23.80
2019-03-24T02:54:50.708Z,26.93
2019-03-24T02:57:19.176Z,23.50
2019-03-24T02:59:47.607Z,24.10
2019-03-24T03:02:16.050Z,21.63
2019-03-24T03:04:44.483Z,23.17
2019-03-24T03:07:12.934Z,22.10
2019-03-24T03:09:41.355Z,21.97
2019-03-24T03:12:09.795Z,22.13
2019-03-24T03:14:38.239Z,22.70
2019-03-24T03:17:06.697Z,22.23
2019-03-24T03:19:35.135Z,22.80
2019-03-24T03:22:03.659Z,28.23
2019-03-24T03:24:32.093Z,24.07
2019-03-24T03:27:00.524Z,25.00
2019-03-24T03:29:28.975Z,25.10
2019-03-24T03:31:57.400Z,23.90
2019-03-24T03:34:25.945Z,28.23
2019-03-24T03:36:54.477Z,25.03
2019-03-24T03:39:22.953Z,33.03
2019-03-24T03:41:51.376Z,25.17
2019-03-24T03:44:19.905Z,27.97
2019-03-24T03:46:52.983Z,28.10
2019-03-24T03:49:18.509Z,23.17
2019-03-24T03:51:46.940Z,25.00
2019-03-24T03:54:15.389Z,25.20
2019-03-24T03:56:43.817Z,23.80
2019-03-24T03:59:12.297Z,26.63
2019-03-24T04:01:41.332Z,22.77
2019-03-24T04:04:09.844Z,24.73
2019-03-24T04:06:38.284Z,26.40
2019-03-24T04:09:07.012Z,24.13
2019-03-24T04:11:35.511Z,26.27
2019-03-24T04:14:04.129Z,25.63
2019-03-24T04:16:32.542Z,21.80
2019-03-24T04:19:00.992Z,24.83
2019-03-24T04:21:29.426Z,25.87
2019-03-24T04:23:57.876Z,29.90
2019-03-24T04:26:26.311Z,29.00
2019-03-24T04:28:54.828Z,25.97
2019-03-24T04:31:23.287Z,29.47
2019-03-24T04:33:51.702Z,24.73
2019-03-24T04:36:20.155Z,24.57
2019-03-24T04:38:48.596Z,26.07
2019-03-24T04:41:17.131Z,27.00
2019-03-24T04:43:45.564Z,24.37
2019-03-24T04:46:14.019Z,30.90
2019-03-24T04:48:42.459Z,30.00
2019-03-24T04:51:10.902Z,29.37
2019-03-24T04:53:39.338Z,28.10
2019-03-24T04:56:07.803Z,28.77
2019-03-24T04:58:36.231Z,27.03
2019-03-24T05:01:04.824Z,24.30
2019-03-24T05:03:33.251Z,32.90
2019-03-24T05:06:01.783Z,27.70
2019-03-24T05:08:30.579Z,24.90
2019-03-24T05:10:59.027Z,25.73
2019-03-24T05:13:27.494Z,30.17
2019-03-24T05:15:55.950Z,26.70
2019-03-24T05:18:24.371Z,28.43
2019-03-24T05:20:52.839Z,34.20
2019-03-24T05:23:21.259Z,32.30
2019-03-24T05:25:49.691Z,31.37
2019-03-24T05:28:18.165Z,31.40
2019-03-24T05:30:46.590Z,30.10
2019-03-24T05:33:15.022Z,31.60
2019-03-24T05:35:43.483Z,38.50
2019-03-24T05:38:11.940Z,41.73
2019-03-24T05:40:40.427Z,37.33
2019-03-24T05:43:08.894Z,29.63
2019-03-24T05:45:37.331Z,36.23
2019-03-24T05:48:05.780Z,33.07
2019-03-24T05:50:34.211Z,31.87
2019-03-24T05:53:02.741Z,33.17
2019-03-24T05:55:31.176Z,32.30
2019-03-24T05:57:59.671Z,32.63
2019-03-24T06:00:28.186Z,38.97
2019-03-24T06:02:57.396Z,34.77
2019-03-24T06:05:26.001Z,35.40
2019-03-24T06:07:54.535Z,36.83
2019-03-24T06:10:22.958Z,36.27
2019-03-24T06:12:51.402Z,35.07
2019-03-24T06:15:19.882Z,34.67
2019-03-24T06:17:48.313Z,40.67
2019-03-24T06:20:16.778Z,38.73
2019-03-24T06:22:45.193Z,35.47
2019-03-24T06:25:13.748Z,35.13
2019-03-24T06:27:42.391Z,38.73
2019-03-24T06:30:11.027Z,37.23
2019-03-24T06:32:39.487Z,35.13
2019-03-24T06:35:08.178Z,35.23
2019-03-24T06:37:36.660Z,38.73
2019-03-24T06:40:06.934Z,36.70
2019-03-24T06:42:35.440Z,32.27
2019-03-24T06:45:06.214Z,39.67
2019-03-24T06:47:34.676Z,46.60
2019-03-24T06:50:03.763Z,34.20
2019-03-24T06:52:32.262Z,34.13
2019-03-24T06:55:00.802Z,33.20
2019-03-24T06:57:29.218Z,33.67
2019-03-24T06:59:57.716Z,30.97
2019-03-24T07:02:26.229Z,42.03
2019-03-24T07:04:56.953Z,37.63
2019-03-24T07:07:25.456Z,42.33
2019-03-24T07:09:53.887Z,37.27
2019-03-24T07:12:22.350Z,37.67
2019-03-24T07:14:50.779Z,39.47
2019-03-24T07:17:19.339Z,36.20
2019-03-24T07:19:47.762Z,38.23
2019-03-24T07:22:16.206Z,38.23
2019-03-24T07:24:44.659Z,39.17
2019-03-24T07:27:13.187Z,37.33
2019-03-24T07:29:41.654Z,35.03
2019-03-24T07:32:10.147Z,39.57
2019-03-24T07:34:38.652Z,36.63
2019-03-24T07:37:07.244Z,38.63
2019-03-24T07:39:35.679Z,40.10
2019-03-24T07:42:05.599Z,39.00
2019-03-24T07:44:34.211Z,42.50
2019-03-24T07:47:05.839Z,35.23
2019-03-24T07:49:34.259Z,39.97
2019-03-24T07:52:02.799Z,37.10
2019-03-24T07:54:31.372Z,36.33
2019-03-24T07:57:00.227Z,35.80
2019-03-24T07:59:28.750Z,39.73
2019-03-24T08:01:57.194Z,32.97
2019-03-24T08:04:25.658Z,36.90
2019-03-24T08:06:54.100Z,35.47
2019-03-24T08:09:22.603Z,43.83
2019-03-24T08:11:51.137Z,39.40
2019-03-24T08:14:19.592Z,40.37
2019-03-24T08:16:48.044Z,39.93
2019-03-24T08:19:16.613Z,41.20
2019-03-24T08:21:45.159Z,39.63
2019-03-24T08:24:13.638Z,37.03
2019-03-24T08:26:42.069Z,39.53
2019-03-24T08:29:10.556Z,37.27
2019-03-24T08:31:38.979Z,37.17
2019-03-24T08:34:07.423Z,37.40
2019-03-24T08:36:35.908Z,39.00
2019-03-24T08:39:06.238Z,37.83
2019-03-24T08:41:34.667Z,36.67
2019-03-24T08:44:03.259Z,39.37
2019-03-24T08:46:31.724Z,38.40
2019-03-24T08:49:00.176Z,34.40
2019-03-24T08:51:28.607Z,35.23
2019-03-24T08:53:57.143Z,34.40
2019-03-24T08:56:25.657Z,38.30
2019-03-24T08:58:54.099Z,36.80
2019-03-24T09:01:22.591Z,35.67
2019-03-24T09:03:51.031Z,38.83
2019-03-24T09:06:19.503Z,40.20
2019-03-24T09:08:48.976Z,35.83
2019-03-24T09:11:17.665Z,37.83
2019-03-24T09:13:46.123Z,38.57
2019-03-24T09:16:14.571Z,41.63
2019-03-24T09:18:51.976Z,41.50
2019-03-24T09:21:13.268Z,42.50
2019-03-24T09:23:41.728Z,37.33
2019-03-24T09:26:10.330Z,38.20
2019-03-24T09:28:38.912Z,36.40
2019-03-24T09:31:07.364Z,35.90
2019-03-24T09:33:35.799Z,34.50
2019-03-24T09:36:04.336Z,36.53
2019-03-24T09:38:32.772Z,31.47
2019-03-24T09:41:01.288Z,36.60
2019-03-24T09:43:29.736Z,41.27
2019-03-24T09:45:58.195Z,41.63
2019-03-24T09:48:26.693Z,41.30
2019-03-24T09:50:55.247Z,41.87
2019-03-24T09:53:23.696Z,40.63
2019-03-24T09:55:52.159Z,41.00
2019-03-24T09:58:20.650Z,41.47
2019-03-24T10:00:49.147Z,36.73
2019-03-24T10:03:17.640Z,38.10
2019-03-24T10:05:46.063Z,33.07
2019-03-24T10:08:14.603Z,33.93
2019-03-24T10:10:43.059Z,32.00
2019-03-24T10:13:11.557Z,35.40
2019-03-24T10:15:40.063Z,29.70
2019-03-24T10:18:08.560Z,28.47
2019-03-24T10:20:37.060Z,32.27
2019-03-24T10:23:05.600Z,29.57
2019-03-24T10:25:34.040Z,28.70
2019-03-24T10:28:02.656Z,32.83
2019-03-24T10:30:31.155Z,28.53
2019-03-24T10:32:59.619Z,29.80
2019-03-24T10:35:28.123Z,27.13
2019-03-24T10:37:56.590Z,28.30
2019-03-24T10:40:28.997Z,27.07
2019-03-24T10:42:55.375Z,24.70
2019-03-24T10:45:23.971Z,28.03
2019-03-24T10:47:52.495Z,25.43
2019-03-24T10:50:21.083Z,26.07
2019-03-24T10:52:49.683Z,26.27
2019-03-24T10:55:18.129Z,24.80
2019-03-24T10:57:46.592Z,27.17
2019-03-24T11:00:18.122Z,26.10
2019-03-24T11:02:46.667Z,25.40
2019-03-24T11:05:15.283Z,21.53
2019-03-24T11:07:43.719Z,22.97
2019-03-24T11:10:13.222Z,29.37
2019-03-24T11:12:41.727Z,25.57
2019-03-24T11:15:11.058Z,21.87
2019-03-24T11:17:39.569Z,25.17
2019-03-24T11:20:08.602Z,23.13
2019-03-24T11:22:37.111Z,19.80
2019-03-24T11:25:08.321Z,21.77
2019-03-24T11:27:36.914Z,23.23
2019-03-24T11:30:08.784Z,23.97
2019-03-24T11:32:37.662Z,16.33
2019-03-24T11:35:06.958Z,20.83
2019-03-24T11:37:35.403Z,18.73
2019-03-24T11:40:06.291Z,20.50
2019-03-24T11:42:34.759Z,20.37
2019-03-24T11:45:04.875Z,13.10
2019-03-24T11:47:33.388Z,18.43
2019-03-24T11:50:01.915Z,14.63
2019-03-24T11:52:30.363Z,18.43
2019-03-24T11:54:58.845Z,13.70
2019-03-24T11:57:27.348Z,13.33
2019-03-24T11:59:55.781Z,9.37
2019-03-24T12:02:24.244Z,10.00
2019-03-24T12:04:52.701Z,12.67
2019-03-24T12:07:21.288Z,13.83
2019-03-24T12:09:49.738Z,11.97
2019-03-24T12:12:18.475Z,15.30
2019-03-24T12:14:47.046Z,14.53
2019-03-24T12:17:15.593Z,18.13
2019-03-24T12:19:44.025Z,19.93
2019-03-24T12:22:12.493Z,20.17
2019-03-24T12:24:41.033Z,22.70
2019-03-24T12:27:09.499Z,15.63
2019-03-24T12:29:37.939Z,18.63
2019-03-24T12:32:06.640Z,18.37
2019-03-24T12:34:35.092Z,16.47
2019-03-24T12:37:03.568Z,16.07
2019-03-24T12:39:31.987Z,18.10
2019-03-24T12:42:00.509Z,14.37
2019-03-24T12:44:28.982Z,18.20
2019-03-24T12:46:57.416Z,17.73
2019-03-24T12:49:25.901Z,17.83
2019-03-24T12:51:54.336Z,18.80
2019-03-24T12:54:24.508Z,18.13
2019-03-24T12:56:53.159Z,22.07
2019-03-24T12:59:21.588Z,20.20
2019-03-24T13:01:50.031Z,26.67
2019-03-24T13:04:18.495Z,19.30
2019-03-24T13:06:46.931Z,19.53
2019-03-24T13:09:15.491Z,19.33
2019-03-24T13:11:44.008Z,20.40
2019-03-24T13:14:12.532Z,17.63
2019-03-24T13:16:41.060Z,17.03
2019-03-24T13:19:09.618Z,14.13
2019-03-24T13:21:38.131Z,13.87
2019-03-24T13:24:06.575Z,13.47
2019-03-24T13:26:35.138Z,12.83
2019-03-24T13:29:03.719Z,11.73
2019-03-24T13:31:32.156Z,13.47
2019-03-24T13:34:00.612Z,18.77
2019-03-24T13:36:29.109Z,12.80
2019-03-24T13:38:57.618Z,11.30
2019-03-24T13:41:26.071Z,9.27
2019-03-24T13:43:54.537Z,12.07
2019-03-24T13:46:23.066Z,10.13
2019-03-24T13:48:51.584Z,9.70
2019-03-24T13:51:20.205Z,12.40
2019-03-24T13:53:48.663Z,20.63
2019-03-24T13:56:17.130Z,11.67
2019-03-24T13:58:45.579Z,9.87
2019-03-24T14:01:14.856Z,13.07
2019-03-24T14:03:43.303Z,11.17
2019-03-24T14:06:11.815Z,10.30
2019-03-24T14:08:40.269Z,10.80
2019-03-24T14:11:08.814Z,14.73
2019-03-24T14:13:37.544Z,11.67
2019-03-24T14:16:06.135Z,11.83
2019-03-24T14:18:34.582Z,9.93
2019-03-24T14:21:03.163Z,9.40
2019-03-24T14:23:31.624Z,10.40
2019-03-24T14:26:00.081Z,10.20
2019-03-24T14:28:28.533Z,10.77
2019-03-24T14:30:57.117Z,9.37
2019-03-24T14:33:25.542Z,6.50
2019-03-24T14:35:54.114Z,10.70
2019-03-24T14:38:22.583Z,11.63
2019-03-24T14:40:51.059Z,9.67
2019-03-24T14:43:19.491Z,10.47
2019-03-24T14:45:54.215Z,9.70
2019-03-24T14:48:22.677Z,7.60
2019-03-24T14:50:54.687Z,11.77
2019-03-24T14:53:21.398Z,8.13
2019-03-24T14:55:49.928Z,7.77
2019-03-24T14:58:18.349Z,8.53
2019-03-24T15:00:47.172Z,10.93
2019-03-24T15:03:15.678Z,8.27
2019-03-24T15:05:44.228Z,8.93
2019-03-24T15:08:12.844Z,7.40
2019-03-24T15:10:41.289Z,11.97
2019-03-24T15:13:09.820Z,8.93
2019-03-24T15:15:38.319Z,7.80
2019-03-24T15:18:06.783Z,6.97
2019-03-24T15:20:35.230Z,7.77
2019-03-24T15:23:03.757Z,6.33
2019-03-24T15:25:32.243Z,5.77
2019-03-24T15:28:00.764Z,6.17
2019-03-24T15:30:29.301Z,7.10
2019-03-24T15:32:57.815Z,10.33
2019-03-24T15:35:26.278Z,7.97
2019-03-24T15:38:07.775Z,8.30
2019-03-24T15:40:25.274Z,9.53
2019-03-24T15:42:53.727Z,5.47
2019-03-24T15:45:22.323Z,9.23
2019-03-24T15:47:50.780Z,11.60
2019-03-24T15:50:19.225Z,11.83
2019-03-24T15:52:47.752Z,12.50
2019-03-24T15:55:16.202Z,8.73
2019-03-24T15:57:44.659Z,13.30
2019-03-24T16:00:14.436Z,6.63
2019-03-24T16:02:42.852Z,6.70
2019-03-24T16:05:11.473Z,5.10
2019-03-24T16:07:39.895Z,6.43
2019-03-24T16:10:08.544Z,7.47
2019-03-24T16:12:37.071Z,7.57
2019-03-24T16:15:07.499Z,5.20
2019-03-24T16:17:36.018Z,8.13
2019-03-24T16:20:06.640Z,6.43
2019-03-24T16:22:35.060Z,6.17
2019-03-24T16:25:04.366Z,4.53
2019-03-24T16:27:35.040Z,6.07
2019-03-24T16:30:03.687Z,6.50
2019-03-24T16:32:32.136Z,4.83
2019-03-24T16:35:00.598Z,6.97
2019-03-24T16:37:29.055Z,6.60
2019-03-24T16:39:57.584Z,18.00
2019-03-24T16:42:26.041Z,12.37
2019-03-24T16:44:54.494Z,5.90
2019-03-24T16:47:22.919Z,9.77
2019-03-24T16:49:51.400Z,8.93
2019-03-24T16:52:19.937Z,5.63
2019-03-24T16:54:48.399Z,7.17
2019-03-24T16:57:16.832Z,7.10
2019-03-24T16:59:45.278Z,6.43
2019-03-24T17:02:13.812Z,7.80
2019-03-24T17:04:42.244Z,6.17
2019-03-24T17:07:10.761Z,5.43
2019-03-24T17:09:39.188Z,4.93
2019-03-24T17:12:07.786Z,5.83
2019-03-24T17:14:36.283Z,6.77
2019-03-24T17:17:05.156Z,4.27
2019-03-24T17:19:33.575Z,5.37
2019-03-24T17:22:02.031Z,6.23
2019-03-24T17:24:30.469Z,3.83
2019-03-24T17:26:58.931Z,5.23
2019-03-24T17:29:27.364Z,5.67
2019-03-24T17:31:55.920Z,6.33
2019-03-24T17:34:24.423Z,6.87
2019-03-24T17:36:52.875Z,6.80
2019-03-24T17:39:21.002Z,6.97
2019-03-24T17:41:49.487Z,4.40
2019-03-24T17:44:17.574Z,7.53
2019-03-24T17:46:46.058Z,7.13
2019-03-24T17:49:14.550Z,10.53
2019-03-24T17:51:43.016Z,8.30
2019-03-24T17:54:11.563Z,7.60
2019-03-24T17:56:40.132Z,6.47
2019-03-24T17:59:08.600Z,6.50
2019-03-24T18:01:37.123Z,9.13
2019-03-24T18:04:05.566Z,10.13
2019-03-24T18:06:34.015Z,8.77
2019-03-24T18:09:02.816Z,8.57
2019-03-24T18:11:31.288Z,8.80
2019-03-24T18:13:59.858Z,8.97
2019-03-24T18:16:28.328Z,16.23
2019-03-24T18:18:56.817Z,18.47
2019-03-24T18:21:25.264Z,14.43
2019-03-24T18:23:53.859Z,11.20
2019-03-24T18:26:22.860Z,9.43
2019-03-24T18:28:51.303Z,26.00
2019-03-24T18:31:19.744Z,19.07
2019-03-24T18:33:48.224Z,14.27
2019-03-24T18:36:16.723Z,11.40
2019-03-24T18:38:45.253Z,9.43
2019-03-24T18:41:13.711Z,14.00
2019-03-24T18:43:42.362Z,9.57
2019-03-24T18:46:10.785Z,9.60
2019-03-24T18:48:39.351Z,6.73
2019-03-24T18:51:07.814Z,9.67
2019-03-24T18:53:36.522Z,8.83
2019-03-24T18:56:05.100Z,11.00
2019-03-24T18:58:33.582Z,10.23
2019-03-24T19:01:02.164Z,11.30
2019-03-24T19:03:30.649Z,10.83
2019-03-24T19:05:59.162Z,11.93
2019-03-24T19:08:27.571Z,18.17
2019-03-24T19:10:56.249Z,16.30
2019-03-24T19:13:24.748Z,18.33
2019-03-24T19:15:53.564Z,12.63
2019-03-24T19:18:22.003Z,14.47
2019-03-24T19:20:50.559Z,32.03
2019-03-24T19:23:19.051Z,8.20
2019-03-24T19:25:47.523Z,11.23
2019-03-24T19:28:16.019Z,10.73
2019-03-24T19:30:44.611Z,11.10
2019-03-24T19:33:13.057Z,15.03
2019-03-24T19:35:41.675Z,20.73
2019-03-24T19:38:10.206Z,14.00
2019-03-24T19:40:38.778Z,9.73
2019-03-24T19:43:07.199Z,11.73
2019-03-24T19:45:35.790Z,10.23
2019-03-24T19:48:04.606Z,12.17
2019-03-24T19:50:33.034Z,10.20
2019-03-24T19:53:01.489Z,12.63
2019-03-24T19:55:29.918Z,15.50
2019-03-24T19:58:02.243Z,11.13
2019-03-24T20:00:30.699Z,9.53
2019-03-24T20:02:59.267Z,11.87
2019-03-24T20:05:27.451Z,14.20
2019-03-24T20:07:56.137Z,11.97
2019-03-24T20:10:24.639Z,7.53
2019-03-24T20:12:53.168Z,13.70
2019-03-24T20:15:21.607Z,9.17
2019-03-24T20:17:50.161Z,14.30
2019-03-24T20:20:18.808Z,12.57
2019-03-24T20:22:56.025Z,11.70
2019-03-24T20:25:17.545Z,11.10
2019-03-24T20:27:46.034Z,10.60
2019-03-24T20:30:15.370Z,16.30
2019-03-24T20:32:43.903Z,13.47
2019-03-24T20:35:12.666Z,7.33
2019-03-24T20:37:41.150Z,8.90
2019-03-24T20:40:10.024Z,9.93
2019-03-24T20:42:38.493Z,18.60
2019-03-24T20:45:08.868Z,12.03
2019-03-24T20:47:37.353Z,10.30
2019-03-24T20:50:09.224Z,12.93
2019-03-24T20:52:37.690Z,8.67
2019-03-24T20:55:07.931Z,14.63
2019-03-24T20:57:36.400Z,13.83
2019-03-24T21:00:07.403Z,12.87
2019-03-24T21:02:36.006Z,14.53
2019-03-24T21:05:05.922Z,11.70
2019-03-24T21:07:34.449Z,12.20
2019-03-24T21:10:03.203Z,12.53
2019-03-24T21:12:31.626Z,10.97
2019-03-24T21:15:00.339Z,14.70
2019-03-24T21:17:28.868Z,11.83
2019-03-24T21:19:58.280Z,12.13
2019-03-24T21:22:26.740Z,13.87
2019-03-24T21:24:55.325Z,14.13
2019-03-24T21:27:23.762Z,13.27
2019-03-24T21:29:52.200Z,11.30
2019-03-24T21:32:20.647Z,10.17
2019-03-24T21:34:49.088Z,14.97
2019-03-24T21:37:17.543Z,12.70
2019-03-24T21:39:46.002Z,11.87
2019-03-24T21:42:14.522Z,13.53
2019-03-24T21:44:43.121Z,25.47
2019-03-24T21:47:11.579Z,12.13
2019-03-24T21:49:40.007Z,16.70
2019-03-24T21:52:08.576Z,15.57
2019-03-24T21:54:37.040Z,14.37
2019-03-24T21:57:05.551Z,16.33
2019-03-24T21:59:34.103Z,13.13
2019-03-24T22:02:02.968Z,9.83
2019-03-24T22:04:31.461Z,15.40
2019-03-24T22:06:59.911Z,13.97
2019-03-24T22:09:28.163Z,10.50
2019-03-24T22:11:56.607Z,11.40
2019-03-24T22:14:25.036Z,13.63
2019-03-24T22:16:53.503Z,16.50
2019-03-24T22:19:22.015Z,14.03
2019-03-24T22:21:50.442Z,14.67
2019-03-24T22:24:18.899Z,15.37
2019-03-24T22:26:47.404Z,17.47
2019-03-24T22:29:15.896Z,13.93
2019-03-24T22:31:44.076Z,15.87
2019-03-24T22:34:12.502Z,13.63
2019-03-24T22:36:40.956Z,13.00
2019-03-24T22:39:09.474Z,11.63
2019-03-24T22:41:37.899Z,12.93
2019-03-24T22:44:06.040Z,12.67
2019-03-24T22:46:34.463Z,14.80
2019-03-24T22:49:02.899Z,11.77
2019-03-24T22:51:31.351Z,10.97
2019-03-24T22:54:03.494Z,12.73
2019-03-24T22:56:29.955Z,10.20
2019-03-24T22:58:58.444Z,15.33
2019-03-24T23:01:27.060Z,14.47
2019-03-24T23:03:55.682Z,10.63
2019-03-24T23:06:24.184Z,15.70
2019-03-24T23:08:52.619Z,13.30
2019-03-24T23:11:21.049Z,12.23
2019-03-24T23:13:49.504Z,10.57
2019-03-24T23:16:18.011Z,11.93
2019-03-24T23:18:46.466Z,13.97
2019-03-24T23:21:14.936Z,10.40
2019-03-24T23:23:43.356Z,16.97
2019-03-24T23:26:11.804Z,14.83
2019-03-24T23:28:40.308Z,13.57
2019-03-24T23:31:08.941Z,17.73
2019-03-24T23:33:37.369Z,16.47
2019-03-24T23:36:05.864Z,15.03
2019-03-24T23:38:34.282Z,11.43
2019-03-24T23:41:02.763Z,12.83
2019-03-24T23:43:31.273Z,14.00
2019-03-24T23:45:59.798Z,14.77
2019-03-24T23:48:29.196Z,15.53
2019-03-24T23:50:57.647Z,12.87
2019-03-24T23:53:26.071Z,11.67
2019-03-24T23:55:54.528Z,15.10
2019-03-24T23:58:22.954Z,13.73
